createdAt,value
2022-11-27T00:00:39.330Z,4.00
2022-11-27T00:03:07.228Z,4.00
2022-11-27T00:05:36.382Z,4.00
2022-11-27T00:08:04.164Z,4.00
2022-11-27T00:10:31.853Z,4.00
2022-11-27T00:12:59.551Z,4.00
2022-11-27T00:15:27.263Z,4.00
2022-11-27T00:17:54.949Z,4.00
2022-11-27T00:20:26.081Z,4.00
2022-11-27T00:22:57.590Z,4.00
2022-11-27T00:25:25.301Z,4.00
2022-11-27T00:27:52.993Z,4.00
2022-11-27T00:30:20.890Z,4.00
2022-11-27T00:32:48.607Z,4.00
2022-11-27T00:35:16.372Z,3.90
2022-11-27T00:37:44.104Z,3.90
2022-11-27T00:40:13.751Z,3.90
2022-11-27T00:42:41.406Z,3.90
2022-11-27T00:45:10.359Z,3.90
2022-11-27T00:47:38.042Z,3.90
2022-11-27T00:50:07.060Z,3.90
2022-11-27T00:52:34.718Z,3.90
2022-11-27T00:55:02.443Z,3.90
2022-11-27T00:57:31.466Z,3.90
2022-11-27T00:59:59.159Z,3.90
2022-11-27T01:02:26.871Z,3.90
2022-11-27T01:04:54.679Z,3.90
2022-11-27T01:07:22.469Z,3.90
2022-11-27T01:09:50.227Z,3.80
2022-11-27T01:12:17.930Z,3.80
2022-11-27T01:14:47.035Z,3.90
2022-11-27T01:17:14.754Z,3.80
2022-11-27T01:19:42.529Z,3.80
2022-11-27T01:22:10.245Z,3.80
2022-11-27T01:24:38.290Z,3.80
2022-11-27T01:27:06.323Z,3.80
2022-11-27T01:29:34.034Z,3.80
2022-11-27T01:32:03.083Z,3.80
2022-11-27T01:34:30.788Z,3.80
2022-11-27T01:36:58.491Z,3.80
2022-11-27T01:39:26.200Z,3.80
2022-11-27T01:41:53.899Z,3.80
2022-11-27T01:44:53.942Z,3.80
2022-11-27T01:47:45.014Z,3.70
2022-11-27T01:50:23.419Z,3.70
2022-11-27T01:52:55.124Z,3.70
2022-11-27T01:55:28.775Z,3.70
2022-11-27T01:57:59.797Z,3.70
2022-11-27T02:00:28.456Z,3.70
2022-11-27T02:02:57.569Z,3.70
2022-11-27T02:05:28.444Z,3.70
2022-11-27T02:07:58.637Z,3.70
2022-11-27T02:10:36.333Z,3.70
2022-11-27T02:13:10.592Z,3.70
2022-11-27T02:15:45.215Z,3.70
2022-11-27T02:18:22.816Z,3.70
2022-11-27T02:20:57.078Z,3.60
2022-11-27T02:23:53.124Z,3.70
2022-11-27T02:26:38.798Z,3.60
2022-11-27T02:29:10.040Z,3.60
2022-11-27T02:31:43.706Z,3.60
2022-11-27T02:34:23.999Z,3.60
2022-11-27T02:36:58.680Z,3.60
2022-11-27T02:39:33.355Z,3.60
2022-11-27T02:42:08.002Z,3.60
2022-11-27T02:44:42.266Z,3.60
2022-11-27T02:47:12.117Z,3.60
2022-11-27T02:49:41.985Z,3.60
2022-11-27T02:52:12.775Z,3.60
2022-11-27T02:54:42.832Z,3.60
2022-11-27T02:57:12.633Z,3.60
2022-11-27T02:59:44.736Z,3.60
2022-11-27T03:02:18.957Z,3.60
2022-11-27T03:04:51.750Z,3.60
2022-11-27T03:07:26.454Z,3.60
2022-11-27T03:09:58.376Z,3.60
2022-11-27T03:12:26.150Z,3.60
2022-11-27T03:14:55.339Z,3.60
2022-11-27T03:17:36.852Z,3.60
2022-11-27T03:20:11.966Z,3.60
2022-11-27T03:22:39.811Z,3.60
2022-11-27T03:25:08.330Z,3.60
2022-11-27T03:27:41.505Z,3.60
2022-11-27T03:30:12.053Z,3.50
2022-11-27T03:32:39.859Z,3.50
2022-11-27T03:35:10.600Z,3.50
2022-11-27T03:37:38.784Z,3.50
2022-11-27T03:40:08.576Z,3.50
2022-11-27T03:42:45.543Z,3.50
2022-11-27T03:45:18.114Z,3.50
2022-11-27T03:48:00.074Z,3.50
2022-11-27T03:50:37.099Z,3.50
2022-11-27T03:53:13.572Z,3.50
2022-11-27T03:55:49.586Z,3.50
2022-11-27T03:58:24.145Z,3.50
2022-11-27T04:00:54.654Z,3.50
2022-11-27T04:03:26.112Z,3.40
2022-11-27T04:05:54.060Z,3.50
2022-11-27T04:08:22.089Z,3.40
2022-11-27T04:10:50.106Z,3.40
2022-11-27T04:13:18.165Z,3.40
2022-11-27T04:15:45.992Z,3.50
2022-11-27T04:18:15.304Z,3.40
2022-11-27T04:20:43.011Z,3.50
2022-11-27T04:23:11.122Z,3.50
2022-11-27T04:25:38.805Z,3.50
2022-11-27T04:28:06.560Z,3.50
2022-11-27T04:30:35.520Z,3.50
2022-11-27T04:33:03.394Z,3.50
2022-11-27T04:35:32.443Z,3.50
2022-11-27T04:38:00.615Z,3.50
2022-11-27T04:40:28.420Z,3.50
2022-11-27T04:42:56.102Z,3.50
2022-11-27T04:45:23.844Z,3.50
2022-11-27T04:47:51.532Z,3.50
2022-11-27T04:50:19.468Z,3.50
2022-11-27T04:52:48.477Z,3.50
2022-11-27T04:55:16.255Z,3.50
2022-11-27T04:57:44.018Z,3.50
2022-11-27T05:00:13.037Z,3.50
2022-11-27T05:02:41.026Z,3.50
2022-11-27T05:05:09.338Z,3.50
2022-11-27T05:07:37.527Z,3.50
2022-11-27T05:10:07.995Z,3.60
2022-11-27T05:12:35.752Z,3.60
2022-11-27T05:15:04.809Z,3.60
2022-11-27T05:17:32.858Z,3.60
2022-11-27T05:20:00.598Z,3.60
2022-11-27T05:22:28.420Z,3.60
2022-11-27T05:24:56.110Z,3.60
2022-11-27T05:27:25.449Z,3.60
2022-11-27T05:29:53.172Z,3.60
2022-11-27T05:32:20.923Z,3.70
2022-11-27T05:34:49.574Z,3.70
2022-11-27T05:37:19.755Z,3.70
2022-11-27T05:39:48.003Z,3.70
2022-11-27T05:42:15.735Z,3.70
2022-11-27T05:44:44.763Z,3.70
2022-11-27T05:47:12.512Z,3.70
2022-11-27T05:49:40.380Z,3.80
2022-11-27T05:52:08.068Z,3.80
2022-11-27T05:54:35.778Z,3.80
2022-11-27T05:57:03.492Z,3.80
2022-11-27T05:59:31.218Z,3.80
2022-11-27T06:02:00.379Z,3.80
2022-11-27T06:04:28.185Z,3.80
2022-11-27T06:06:55.873Z,3.90
2022-11-27T06:09:23.631Z,3.90
2022-11-27T06:11:51.402Z,3.90
2022-11-27T06:14:19.136Z,3.90
2022-11-27T06:16:46.866Z,3.90
2022-11-27T06:19:16.046Z,3.90
2022-11-27T06:21:43.862Z,3.90
2022-11-27T06:24:12.129Z,3.90
2022-11-27T06:26:39.951Z,3.90
2022-11-27T06:29:07.709Z,4.00
2022-11-27T06:31:36.000Z,4.00
2022-11-27T06:34:04.639Z,4.00
2022-11-27T06:36:35.124Z,4.00
2022-11-27T06:39:04.000Z,4.00
2022-11-27T06:41:31.990Z,4.00
2022-11-27T06:44:02.754Z,4.10
2022-11-27T06:46:30.815Z,4.10
2022-11-27T06:48:59.348Z,4.10
2022-11-27T06:51:29.455Z,4.10
2022-11-27T06:54:01.196Z,4.10
2022-11-27T06:56:30.617Z,4.10
2022-11-27T06:59:00.386Z,4.10
2022-11-27T07:01:30.031Z,4.20
2022-11-27T07:03:58.169Z,4.20
2022-11-27T07:06:29.534Z,4.20
2022-11-27T07:08:58.755Z,4.20
2022-11-27T07:11:29.589Z,4.20
2022-11-27T07:13:58.901Z,4.20
2022-11-27T07:16:28.925Z,4.20
2022-11-27T07:18:59.819Z,4.20
2022-11-27T07:21:28.392Z,4.30
2022-11-27T07:23:58.285Z,4.30
2022-11-27T07:26:28.337Z,4.30
2022-11-27T07:28:56.402Z,4.30
2022-11-27T07:31:26.493Z,4.30
2022-11-27T07:33:54.771Z,4.30
2022-11-27T07:36:24.874Z,4.40
2022-11-27T07:38:53.027Z,4.40
2022-11-27T07:41:22.462Z,4.40
2022-11-27T07:43:50.349Z,4.40
2022-11-27T07:46:20.351Z,4.50
2022-11-27T07:48:48.313Z,4.50
2022-11-27T07:51:18.233Z,4.50
2022-11-27T07:53:46.489Z,4.50
2022-11-27T07:56:16.891Z,4.50
2022-11-27T07:58:46.034Z,4.60
2022-11-27T08:01:18.106Z,4.60
2022-11-27T08:03:45.994Z,4.60
2022-11-27T08:06:18.724Z,4.60
2022-11-27T08:08:46.474Z,4.60
2022-11-27T08:11:19.415Z,4.70
2022-11-27T08:13:48.847Z,4.70
2022-11-27T08:16:17.203Z,4.70
2022-11-27T08:18:45.006Z,4.70
2022-11-27T08:21:12.928Z,4.70
2022-11-27T08:23:40.755Z,4.80
2022-11-27T08:26:10.131Z,4.80
2022-11-27T08:28:38.931Z,4.90
2022-11-27T08:31:10.906Z,4.90
2022-11-27T08:33:38.793Z,4.90
2022-11-27T08:36:09.690Z,5.00
2022-11-27T08:38:39.352Z,5.00
2022-11-27T08:41:08.663Z,5.10
2022-11-27T08:43:36.777Z,5.10
2022-11-27T08:46:05.403Z,5.10
2022-11-27T08:48:34.649Z,5.20
2022-11-27T08:51:07.719Z,5.20
2022-11-27T08:53:35.962Z,5.20
2022-11-27T08:56:07.269Z,5.30
2022-11-27T08:58:34.957Z,5.30
2022-11-27T09:01:08.663Z,5.30
2022-11-27T09:03:37.797Z,5.40
2022-11-27T09:06:08.523Z,5.40
2022-11-27T09:08:36.284Z,5.50
2022-11-27T09:11:05.180Z,5.70
2022-11-27T09:13:33.381Z,5.60
2022-11-27T09:16:01.288Z,5.60
2022-11-27T09:18:29.042Z,5.60
2022-11-27T09:20:59.445Z,5.70
2022-11-27T09:23:27.381Z,5.70
2022-11-27T09:25:55.153Z,5.80
2022-11-27T09:28:25.597Z,5.80
2022-11-27T09:30:56.748Z,5.80
2022-11-27T09:33:25.284Z,5.90
2022-11-27T09:35:53.101Z,5.90
2022-11-27T09:38:23.600Z,5.90
2022-11-27T09:40:53.309Z,5.90
2022-11-27T09:43:28.846Z,5.90
2022-11-27T09:46:03.786Z,6.00
2022-11-27T09:48:36.257Z,6.00
2022-11-27T09:51:10.124Z,6.00
2022-11-27T09:53:47.001Z,6.00
2022-11-27T09:56:18.022Z,6.00
2022-11-27T09:58:50.039Z,6.10
2022-11-27T10:01:19.750Z,6.10
2022-11-27T10:03:48.127Z,6.10
2022-11-27T10:06:25.229Z,6.20
2022-11-27T10:09:07.119Z,6.20
2022-11-27T10:11:42.883Z,6.20
2022-11-27T10:14:35.308Z,6.30
2022-11-27T10:17:08.386Z,6.30
2022-11-27T10:19:44.879Z,6.30
2022-11-27T10:22:21.091Z,6.40
2022-11-27T10:25:02.634Z,6.40
2022-11-27T10:27:37.472Z,6.50
2022-11-27T10:30:14.045Z,6.50
2022-11-27T10:32:57.654Z,6.60
2022-11-27T10:35:27.688Z,6.60
2022-11-27T10:38:03.665Z,6.70
2022-11-27T10:40:41.165Z,6.70
2022-11-27T10:43:13.561Z,6.80
2022-11-27T10:45:46.837Z,6.80
2022-11-27T10:48:15.382Z,6.90
2022-11-27T10:50:45.158Z,6.90
2022-11-27T10:53:20.309Z,6.90
2022-11-27T10:56:19.401Z,7.00
2022-11-27T10:58:52.057Z,7.00
2022-11-27T11:01:22.350Z,7.10
2022-11-27T11:03:50.736Z,7.10
2022-11-27T11:06:23.126Z,7.20
2022-11-27T11:09:04.251Z,7.30
2022-11-27T11:11:33.365Z,7.30
2022-11-27T11:14:01.062Z,7.40
2022-11-27T11:16:34.755Z,7.40
2022-11-27T11:19:06.038Z,7.50
2022-11-27T11:21:35.948Z,7.50
2022-11-27T11:24:06.317Z,7.60
2022-11-27T11:26:39.233Z,7.60
2022-11-27T11:29:24.558Z,7.60
2022-11-27T11:31:54.336Z,7.60
2022-11-27T11:34:26.440Z,7.70
2022-11-27T11:36:57.360Z,7.70
2022-11-27T11:39:28.225Z,7.70
2022-11-27T11:41:57.355Z,7.80
2022-11-27T11:44:32.249Z,7.80
2022-11-27T11:46:59.974Z,7.90
2022-11-27T11:49:29.369Z,7.90
2022-11-27T11:52:33.587Z,7.90
2022-11-27T11:55:08.634Z,7.90
2022-11-27T11:58:04.244Z,7.90
2022-11-27T12:01:04.773Z,8.00
2022-11-27T12:03:40.123Z,8.00
2022-11-27T12:06:21.812Z,8.00
2022-11-27T12:09:06.357Z,8.00
2022-11-27T12:11:40.771Z,8.00
2022-11-27T12:14:17.851Z,8.00
2022-11-27T12:16:58.959Z,8.00
2022-11-27T12:19:42.797Z,8.00
2022-11-27T12:22:23.688Z,8.00
2022-11-27T12:25:03.330Z,8.00
2022-11-27T12:27:40.482Z,8.00
2022-11-27T12:30:16.595Z,8.00
2022-11-27T12:33:05.579Z,8.00
2022-11-27T12:35:35.112Z,8.00
2022-11-27T12:38:26.091Z,8.00
2022-11-27T12:41:09.741Z,8.00
2022-11-27T12:43:41.383Z,8.00
2022-11-27T12:46:17.007Z,8.00
2022-11-27T12:48:50.785Z,8.00
2022-11-27T12:51:23.274Z,8.00
2022-11-27T12:53:56.063Z,8.00
2022-11-27T12:56:29.489Z,8.00
2022-11-27T12:59:03.270Z,8.00
2022-11-27T13:01:40.433Z,8.00
2022-11-27T13:04:19.180Z,8.00
2022-11-27T13:06:56.038Z,8.00
2022-11-27T13:09:31.838Z,8.00
2022-11-27T13:12:00.851Z,8.00
2022-11-27T13:14:29.376Z,8.00
2022-11-27T13:17:03.658Z,8.00
2022-11-27T13:19:34.123Z,8.00
2022-11-27T13:22:05.092Z,8.00
2022-11-27T13:24:34.389Z,8.00
2022-11-27T13:27:06.988Z,8.00
2022-11-27T13:29:41.122Z,8.00
2022-11-27T13:32:11.091Z,8.10
2022-11-27T13:34:45.938Z,8.10
2022-11-27T13:37:28.078Z,8.10
2022-11-27T13:40:02.192Z,8.10
2022-11-27T13:42:30.048Z,8.10
2022-11-27T13:45:00.464Z,8.10
2022-11-27T13:47:36.227Z,8.10
2022-11-27T13:50:07.109Z,8.10
2022-11-27T13:52:35.483Z,8.10
2022-11-27T13:55:06.168Z,8.10
2022-11-27T13:57:35.154Z,8.10
2022-11-27T14:00:05.545Z,8.10
2022-11-27T14:02:46.838Z,8.10
2022-11-27T14:05:17.536Z,8.10
2022-11-27T14:07:48.516Z,8.00
2022-11-27T14:10:19.324Z,8.00
2022-11-27T14:12:54.408Z,8.00
2022-11-27T14:15:24.555Z,8.00
2022-11-27T14:18:04.893Z,8.00
2022-11-27T14:20:36.184Z,8.00
2022-11-27T14:23:13.236Z,8.00
2022-11-27T14:25:41.893Z,8.00
2022-11-27T14:28:16.163Z,8.00
2022-11-27T14:30:48.049Z,8.00
2022-11-27T14:33:20.187Z,8.00
2022-11-27T14:35:52.040Z,7.90
2022-11-27T14:38:20.263Z,7.90
2022-11-27T14:40:48.420Z,7.90
2022-11-27T14:43:18.960Z,7.90
2022-11-27T14:45:49.333Z,7.90
2022-11-27T14:48:21.732Z,7.90
2022-11-27T14:50:50.892Z,7.90
2022-11-27T14:53:21.161Z,7.90
2022-11-27T14:55:50.169Z,7.80
2022-11-27T15:09:34.078Z,7.70
2022-11-27T15:12:09.380Z,7.70
2022-11-27T15:14:37.210Z,7.70
2022-11-27T15:17:06.119Z,7.70
2022-11-27T15:19:37.965Z,7.70
2022-11-27T15:22:06.343Z,7.70
2022-11-27T15:24:38.721Z,7.60
2022-11-27T15:27:18.782Z,7.60
2022-11-27T15:30:02.359Z,7.60
2022-11-27T15:32:51.060Z,7.60
2022-11-27T15:35:24.356Z,7.60
2022-11-27T15:37:52.608Z,7.50
2022-11-27T15:40:33.298Z,7.50
2022-11-27T15:43:01.020Z,7.50
2022-11-27T15:45:31.162Z,7.50
2022-11-27T15:48:01.080Z,7.50
2022-11-27T15:50:29.619Z,7.40
2022-11-27T15:52:57.415Z,7.40
2022-11-27T15:55:25.212Z,7.40
2022-11-27T15:57:54.217Z,7.40
2022-11-27T16:00:23.013Z,7.40
2022-11-27T16:02:52.261Z,7.40
2022-11-27T16:05:20.551Z,7.30
2022-11-27T16:07:53.553Z,7.30
2022-11-27T16:10:22.811Z,7.30
2022-11-27T16:12:54.703Z,7.30
2022-11-27T16:15:25.767Z,7.30
2022-11-27T16:17:56.458Z,7.30
2022-11-27T16:20:24.184Z,7.20
2022-11-27T16:22:52.530Z,7.20
2022-11-27T16:25:20.908Z,7.20
2022-11-27T16:27:48.643Z,7.20
2022-11-27T16:30:19.765Z,7.20
2022-11-27T16:32:48.812Z,7.20
2022-11-27T16:35:16.790Z,7.20
2022-11-27T16:37:44.441Z,7.10
2022-11-27T16:40:13.443Z,7.10
2022-11-27T16:42:41.141Z,7.10
2022-11-27T16:45:09.919Z,7.00
2022-11-27T16:47:37.575Z,7.00
2022-11-27T16:50:09.709Z,7.00
2022-11-27T16:52:37.715Z,7.00
2022-11-27T16:55:05.978Z,7.00
2022-11-27T16:57:33.675Z,7.00
2022-11-27T17:00:01.464Z,7.00
2022-11-27T17:02:29.570Z,6.90
2022-11-27T17:04:57.423Z,6.90
2022-11-27T17:07:26.543Z,6.90
2022-11-27T17:09:54.267Z,6.90
2022-11-27T17:12:22.106Z,6.90
2022-11-27T17:14:49.817Z,6.90
2022-11-27T17:17:17.558Z,6.90
2022-11-27T17:19:46.950Z,6.90
2022-11-27T17:22:14.673Z,6.80
2022-11-27T17:24:43.723Z,6.80
2022-11-27T17:27:11.412Z,6.80
2022-11-27T17:29:39.481Z,6.80
2022-11-27T17:32:09.826Z,6.80
2022-11-27T17:34:37.636Z,6.80
2022-11-27T17:37:05.311Z,6.80
2022-11-27T17:39:33.000Z,6.80
2022-11-27T17:42:02.044Z,6.80
2022-11-27T17:44:29.756Z,6.70
2022-11-27T17:46:57.401Z,6.70
2022-11-27T17:49:25.153Z,6.70
2022-11-27T17:51:52.893Z,6.70
2022-11-27T17:54:20.649Z,6.70
2022-11-27T17:56:51.109Z,6.70
2022-11-27T17:59:20.755Z,6.60
2022-11-27T18:01:51.137Z,6.70
2022-11-27T18:04:19.230Z,6.70
2022-11-27T18:06:47.052Z,6.70
2022-11-27T18:09:14.763Z,6.60
2022-11-27T18:11:42.673Z,6.70
2022-11-27T18:14:13.332Z,6.60
2022-11-27T18:16:42.524Z,6.60
2022-11-27T18:19:11.905Z,6.60
2022-11-27T18:21:40.166Z,6.60
2022-11-27T18:24:23.913Z,6.60
2022-11-27T18:27:08.814Z,6.60
2022-11-27T18:29:38.026Z,6.60
2022-11-27T18:32:07.916Z,6.60
2022-11-27T18:34:35.770Z,6.60
2022-11-27T18:37:03.536Z,6.60
2022-11-27T18:39:32.185Z,6.60
2022-11-27T18:42:00.146Z,6.60
2022-11-27T18:44:27.851Z,6.60
2022-11-27T18:46:55.774Z,6.50
2022-11-27T18:49:24.907Z,6.50
2022-11-27T18:51:53.833Z,6.50
2022-11-27T18:54:22.112Z,6.50
2022-11-27T18:56:49.853Z,6.50
2022-11-27T18:59:17.581Z,6.50
2022-11-27T19:01:45.333Z,6.50
2022-11-27T19:04:14.855Z,6.40
2022-11-27T19:06:44.509Z,6.40
2022-11-27T19:09:12.819Z,6.40
2022-11-27T19:11:41.420Z,6.40
2022-11-27T19:14:09.980Z,6.40
2022-11-27T19:16:43.761Z,6.40
2022-11-27T19:19:51.970Z,6.30
2022-11-27T19:22:02.600Z,6.30
2022-11-27T19:24:30.351Z,6.30
2022-11-27T19:26:58.560Z,6.30
2022-11-27T19:29:26.299Z,6.30
2022-11-27T19:31:56.034Z,6.20
2022-11-27T19:34:23.767Z,6.20
2022-11-27T19:36:51.475Z,6.20
2022-11-27T19:39:20.470Z,6.20
2022-11-27T19:41:48.176Z,6.20
2022-11-27T19:44:17.325Z,6.20
2022-11-27T19:46:46.510Z,6.30
2022-11-27T19:49:16.732Z,6.30
2022-11-27T19:51:45.079Z,6.30
2022-11-27T19:54:14.492Z,6.30
2022-11-27T19:56:44.047Z,6.30
2022-11-27T19:59:12.911Z,6.30
2022-11-27T20:01:41.253Z,6.30
2022-11-27T20:04:11.809Z,6.30
2022-11-27T20:06:40.934Z,6.30
2022-11-27T20:09:09.192Z,6.30
2022-11-27T20:11:37.071Z,6.30
2022-11-27T20:14:06.790Z,6.30
2022-11-27T20:16:36.144Z,6.30
2022-11-27T20:19:06.013Z,6.30
2022-11-27T20:21:33.798Z,6.30
2022-11-27T20:24:02.848Z,6.30
2022-11-27T20:26:30.894Z,6.30
2022-11-27T20:28:59.407Z,6.30
2022-11-27T20:31:31.619Z,6.30
2022-11-27T20:34:01.443Z,6.30
2022-11-27T20:36:30.658Z,6.30
2022-11-27T20:38:59.832Z,6.30
2022-11-27T20:41:28.311Z,6.30
2022-11-27T20:43:57.420Z,6.30
2022-11-27T20:46:26.353Z,6.30
2022-11-27T20:48:56.214Z,6.30
2022-11-27T20:51:27.468Z,6.30
2022-11-27T20:53:57.255Z,6.30
2022-11-27T20:56:25.861Z,6.40
2022-11-27T20:58:53.754Z,6.40
2022-11-27T21:01:27.722Z,6.40
2022-11-27T21:03:58.187Z,6.40
2022-11-27T21:06:28.722Z,6.40
2022-11-27T21:08:56.818Z,6.40
2022-11-27T21:11:26.212Z,6.40
2022-11-27T21:13:55.849Z,6.40
2022-11-27T21:16:24.752Z,6.40
2022-11-27T21:18:53.354Z,6.40
2022-11-27T21:21:22.415Z,6.40
2022-11-27T21:23:50.988Z,6.40
2022-11-27T21:26:19.384Z,6.40
2022-11-27T21:28:48.201Z,6.40
2022-11-27T21:31:18.478Z,6.40
2022-11-27T21:33:47.561Z,6.40
2022-11-27T21:36:15.618Z,6.40
2022-11-27T21:38:44.716Z,6.40
2022-11-27T21:41:13.841Z,6.40
2022-11-27T21:43:41.886Z,6.40
2022-11-27T21:46:12.535Z,6.30
2022-11-27T21:48:40.783Z,6.30
2022-11-27T21:51:12.495Z,6.30
2022-11-27T21:53:40.904Z,6.30
2022-11-27T21:56:13.202Z,6.30
2022-11-27T21:58:41.380Z,6.30
2022-11-27T22:01:12.677Z,6.30
2022-11-27T22:03:42.844Z,6.20
2022-11-27T22:06:13.180Z,6.20
2022-11-27T22:08:42.352Z,6.20
2022-11-27T22:11:13.905Z,6.20
2022-11-27T22:13:42.076Z,6.20
2022-11-27T22:16:11.551Z,6.20
2022-11-27T22:18:39.432Z,6.20
2022-11-27T22:21:08.358Z,6.20
2022-11-27T22:23:36.569Z,6.20
2022-11-27T22:26:06.199Z,6.20
2022-11-27T22:28:35.696Z,6.20
2022-11-27T22:31:09.171Z,6.20
2022-11-27T22:33:37.176Z,6.20
2022-11-27T22:36:15.710Z,6.20
2022-11-27T22:38:44.035Z,6.20
2022-11-27T22:41:12.854Z,6.20
2022-11-27T22:43:42.453Z,6.20
2022-11-27T22:46:12.978Z,6.20
2022-11-27T22:48:41.289Z,6.20
2022-11-27T22:51:09.737Z,6.20
2022-11-27T22:53:38.095Z,6.20
2022-11-27T22:56:06.687Z,6.20
2022-11-27T22:58:39.810Z,6.20
2022-11-27T23:01:15.629Z,6.20
2022-11-27T23:03:43.681Z,6.20
2022-11-27T23:06:12.714Z,6.20
2022-11-27T23:08:41.615Z,6.20
2022-11-27T23:11:10.106Z,6.20
2022-11-27T23:13:37.954Z,6.20
2022-11-27T23:16:07.471Z,6.20
2022-11-27T23:18:38.282Z,6.20
2022-11-27T23:21:07.357Z,6.20
2022-11-27T23:23:35.122Z,6.30
2022-11-27T23:26:07.711Z,6.30
2022-11-27T23:28:36.476Z,6.30
2022-11-27T23:31:28.176Z,6.30
2022-11-27T23:33:55.888Z,6.30
2022-11-27T23:36:24.071Z,6.30
2022-11-27T23:38:51.875Z,6.30
2022-11-27T23:41:21.585Z,6.30
2022-11-27T23:43:49.918Z,6.30
2022-11-27T23:46:19.884Z,6.30
2022-11-27T23:48:47.904Z,6.30
2022-11-27T23:51:19.262Z,6.30
2022-11-27T23:53:47.948Z,6.20
2022-11-27T23:56:18.714Z,6.20
2022-11-27T23:58:47.699Z,6.20
